sensor_id;sensor_type;location;lat;lon;timestamp;P1;durP1;ratioP1;P2;durP2;ratioP2
20894;SDS011;10607;42.066;24.742;2022-08-19T00:01:22;7.32;;;6.00;;
20894;SDS011;10607;42.066;24.742;2022-08-19T00:03:48;13.73;;;7.18;;
20894;SDS011;10607;42.066;24.742;2022-08-19T00:06:14;13.98;;;7.50;;
20894;SDS011;10607;42.066;24.742;2022-08-19T00:08:40;9.93;;;7.47;;
20894;SDS011;10607;42.066;24.742;2022-08-19T00:11:06;14.25;;;7.20;;
20894;SDS011;10607;42.066;24.742;2022-08-19T00:13:32;8.25;;;7.13;;
20894;SDS011;10607;42.066;24.742;2022-08-19T00:15:59;12.77;;;7.88;;
20894;SDS011;10607;42.066;24.742;2022-08-19T00:18:25;11.90;;;7.30;;
20894;SDS011;10607;42.066;24.742;2022-08-19T00:20:51;14.52;;;7.93;;
20894;SDS011;10607;42.066;24.742;2022-08-19T00:23:16;13.27;;;7.43;;
20894;SDS011;10607;42.066;24.742;2022-08-19T00:25:42;12.60;;;7.43;;
20894;SDS011;10607;42.066;24.742;2022-08-19T00:28:07;13.73;;;7.30;;
20894;SDS011;10607;42.066;24.742;2022-08-19T00:30:33;17.20;;;7.93;;
20894;SDS011;10607;42.066;24.742;2022-08-19T00:32:58;11.23;;;7.25;;
20894;SDS011;10607;42.066;24.742;2022-08-19T00:35:24;12.30;;;7.75;;
20894;SDS011;10607;42.066;24.742;2022-08-19T00:37:52;8.18;;;6.60;;
20894;SDS011;10607;42.066;24.742;2022-08-19T00:40:18;12.93;;;7.05;;
20894;SDS011;10607;42.066;24.742;2022-08-19T00:42:44;11.32;;;7.28;;
20894;SDS011;10607;42.066;24.742;2022-08-19T00:45:13;13.10;;;7.22;;
20894;SDS011;10607;42.066;24.742;2022-08-19T00:47:44;8.25;;;6.75;;
20894;SDS011;10607;42.066;24.742;2022-08-19T00:50:11;13.20;;;6.85;;
20894;SDS011;10607;42.066;24.742;2022-08-19T00:52:40;10.77;;;7.05;;
20894;SDS011;10607;42.066;24.742;2022-08-19T00:55:10;10.07;;;6.93;;
20894;SDS011;10607;42.066;24.742;2022-08-19T00:57:40;10.77;;;6.72;;
20894;SDS011;10607;42.066;24.742;2022-08-19T01:00:11;10.45;;;6.75;;
20894;SDS011;10607;42.066;24.742;2022-08-19T01:02:39;12.98;;;7.20;;
20894;SDS011;10607;42.066;24.742;2022-08-19T01:05:07;13.45;;;7.15;;
20894;SDS011;10607;42.066;24.742;2022-08-19T01:07:36;10.52;;;7.43;;
20894;SDS011;10607;42.066;24.742;2022-08-19T01:10:05;8.95;;;6.32;;
20894;SDS011;10607;42.066;24.742;2022-08-19T01:12:32;10.85;;;5.78;;
20894;SDS011;10607;42.066;24.742;2022-08-19T01:14:59;8.45;;;5.30;;
20894;SDS011;10607;42.066;24.742;2022-08-19T01:17:25;8.07;;;5.75;;
20894;SDS011;10607;42.066;24.742;2022-08-19T01:19:50;7.18;;;5.75;;
20894;SDS011;10607;42.066;24.742;2022-08-19T01:24:54;7.50;;;6.07;;
20894;SDS011;10607;42.066;24.742;2022-08-19T01:27:19;5.40;;;4.90;;
20894;SDS011;10607;42.066;24.742;2022-08-19T01:29:45;7.15;;;5.20;;
20894;SDS011;10607;42.066;24.742;2022-08-19T01:32:12;5.65;;;4.85;;
20894;SDS011;10607;42.066;24.742;2022-08-19T01:34:39;9.65;;;5.20;;
20894;SDS011;10607;42.066;24.742;2022-08-19T01:37:09;15.55;;;4.90;;
20894;SDS011;10607;42.066;24.742;2022-08-19T01:39:36;8.88;;;5.75;;
20894;SDS011;10607;42.066;24.742;2022-08-19T01:42:03;7.57;;;4.70;;
20894;SDS011;10607;42.066;24.742;2022-08-19T01:44:30;6.80;;;4.72;;
20894;SDS011;10607;42.066;24.742;2022-08-19T01:46:55;8.93;;;5.03;;
20894;SDS011;10607;42.066;24.742;2022-08-19T01:49:22;5.20;;;4.70;;
20894;SDS011;10607;42.066;24.742;2022-08-19T01:51:50;6.47;;;4.90;;
20894;SDS011;10607;42.066;24.742;2022-08-19T01:54:17;8.02;;;5.40;;
20894;SDS011;10607;42.066;24.742;2022-08-19T01:56:43;7.05;;;5.05;;
20894;SDS011;10607;42.066;24.742;2022-08-19T01:59:14;10.15;;;6.38;;
20894;SDS011;10607;42.066;24.742;2022-08-19T02:01:44;8.80;;;6.05;;
20894;SDS011;10607;42.066;24.742;2022-08-19T02:04:09;8.40;;;5.57;;
20894;SDS011;10607;42.066;24.742;2022-08-19T02:06:35;7.07;;;6.03;;
20894;SDS011;10607;42.066;24.742;2022-08-19T02:09:01;10.82;;;6.03;;
20894;SDS011;10607;42.066;24.742;2022-08-19T02:11:29;7.32;;;5.82;;
20894;SDS011;10607;42.066;24.742;2022-08-19T02:13:59;13.95;;;6.80;;
20894;SDS011;10607;42.066;24.742;2022-08-19T02:16:30;11.70;;;7.13;;
20894;SDS011;10607;42.066;24.742;2022-08-19T02:18:56;15.88;;;7.07;;
20894;SDS011;10607;42.066;24.742;2022-08-19T02:21:23;8.63;;;6.80;;
20894;SDS011;10607;42.066;24.742;2022-08-19T02:23:49;13.57;;;7.10;;
20894;SDS011;10607;42.066;24.742;2022-08-19T02:26:15;16.52;;;7.70;;
20894;SDS011;10607;42.066;24.742;2022-08-19T02:28:41;13.18;;;7.63;;
20894;SDS011;10607;42.066;24.742;2022-08-19T02:31:14;11.10;;;6.85;;
20894;SDS011;10607;42.066;24.742;2022-08-19T02:33:42;11.07;;;7.18;;
20894;SDS011;10607;42.066;24.742;2022-08-19T02:36:08;13.77;;;7.90;;
20894;SDS011;10607;42.066;24.742;2022-08-19T02:38:34;13.82;;;7.72;;
20894;SDS011;10607;42.066;24.742;2022-08-19T02:41:03;15.55;;;7.95;;
20894;SDS011;10607;42.066;24.742;2022-08-19T02:43:32;17.05;;;7.55;;
20894;SDS011;10607;42.066;24.742;2022-08-19T02:46:12;22.52;;;6.65;;
20894;SDS011;10607;42.066;24.742;2022-08-19T02:48:38;12.38;;;6.47;;
20894;SDS011;10607;42.066;24.742;2022-08-19T02:51:04;13.02;;;6.82;;
20894;SDS011;10607;42.066;24.742;2022-08-19T02:53:30;12.45;;;6.72;;
20894;SDS011;10607;42.066;24.742;2022-08-19T02:55:56;15.13;;;7.50;;
20894;SDS011;10607;42.066;24.742;2022-08-19T02:58:22;13.70;;;6.22;;
20894;SDS011;10607;42.066;24.742;2022-08-19T03:00:49;8.20;;;4.88;;
20894;SDS011;10607;42.066;24.742;2022-08-19T03:03:17;8.15;;;5.35;;
20894;SDS011;10607;42.066;24.742;2022-08-19T03:05:43;13.57;;;5.72;;
20894;SDS011;10607;42.066;24.742;2022-08-19T03:08:10;11.02;;;5.60;;
20894;SDS011;10607;42.066;24.742;2022-08-19T03:10:41;10.93;;;6.38;;
20894;SDS011;10607;42.066;24.742;2022-08-19T03:13:09;8.10;;;5.05;;
20894;SDS011;10607;42.066;24.742;2022-08-19T03:15:39;12.45;;;5.82;;
20894;SDS011;10607;42.066;24.742;2022-08-19T03:18:06;6.88;;;5.47;;
20894;SDS011;10607;42.066;24.742;2022-08-19T03:20:31;9.95;;;5.90;;
20894;SDS011;10607;42.066;24.742;2022-08-19T03:22:57;10.48;;;4.95;;
20894;SDS011;10607;42.066;24.742;2022-08-19T03:25:23;5.78;;;4.47;;
20894;SDS011;10607;42.066;24.742;2022-08-19T03:27:49;6.38;;;4.85;;
20894;SDS011;10607;42.066;24.742;2022-08-19T03:30:14;7.97;;;4.95;;
20894;SDS011;10607;42.066;24.742;2022-08-19T03:32:40;12.30;;;5.07;;
20894;SDS011;10607;42.066;24.742;2022-08-19T03:35:05;9.13;;;5.57;;
20894;SDS011;10607;42.066;24.742;2022-08-19T03:37:31;9.95;;;5.80;;
20894;SDS011;10607;42.066;24.742;2022-08-19T03:39:57;8.45;;;5.10;;
20894;SDS011;10607;42.066;24.742;2022-08-19T03:42:22;7.13;;;5.10;;
20894;SDS011;10607;42.066;24.742;2022-08-19T03:44:48;11.70;;;4.78;;
20894;SDS011;10607;42.066;24.742;2022-08-19T03:47:13;8.52;;;5.00;;
20894;SDS011;10607;42.066;24.742;2022-08-19T03:49:41;9.02;;;5.30;;
20894;SDS011;10607;42.066;24.742;2022-08-19T03:52:07;7.63;;;4.95;;
20894;SDS011;10607;42.066;24.742;2022-08-19T03:54:33;9.68;;;5.25;;
20894;SDS011;10607;42.066;24.742;2022-08-19T03:56:59;7.85;;;4.53;;
20894;SDS011;10607;42.066;24.742;2022-08-19T03:59:30;8.43;;;4.90;;
20894;SDS011;10607;42.066;24.742;2022-08-19T04:01:58;11.73;;;5.43;;
20894;SDS011;10607;42.066;24.742;2022-08-19T04:04:25;8.25;;;5.25;;
20894;SDS011;10607;42.066;24.742;2022-08-19T04:06:52;11.63;;;4.85;;
20894;SDS011;10607;42.066;24.742;2022-08-19T04:09:18;8.88;;;5.55;;
20894;SDS011;10607;42.066;24.742;2022-08-19T04:11:48;9.82;;;5.22;;
20894;SDS011;10607;42.066;24.742;2022-08-19T04:14:18;9.52;;;5.50;;
20894;SDS011;10607;42.066;24.742;2022-08-19T04:16:46;11.65;;;5.63;;
20894;SDS011;10607;42.066;24.742;2022-08-19T04:19:13;10.13;;;5.53;;
20894;SDS011;10607;42.066;24.742;2022-08-19T04:21:40;9.80;;;4.97;;
20894;SDS011;10607;42.066;24.742;2022-08-19T04:24:11;8.98;;;4.95;;
20894;SDS011;10607;42.066;24.742;2022-08-19T04:26:37;10.57;;;5.38;;
20894;SDS011;10607;42.066;24.742;2022-08-19T04:29:22;12.10;;;5.88;;
20894;SDS011;10607;42.066;24.742;2022-08-19T04:31:50;8.00;;;5.00;;
20894;SDS011;10607;42.066;24.742;2022-08-19T04:34:17;9.40;;;5.55;;
20894;SDS011;10607;42.066;24.742;2022-08-19T04:36:48;7.30;;;5.03;;
20894;SDS011;10607;42.066;24.742;2022-08-19T04:39:17;6.65;;;5.35;;
20894;SDS011;10607;42.066;24.742;2022-08-19T04:42:09;11.05;;;7.78;;
20894;SDS011;10607;42.066;24.742;2022-08-19T04:44:52;7.35;;;5.30;;
20894;SDS011;10607;42.066;24.742;2022-08-19T04:47:18;7.32;;;5.45;;
20894;SDS011;10607;42.066;24.742;2022-08-19T04:49:43;7.93;;;6.07;;
20894;SDS011;10607;42.066;24.742;2022-08-19T04:52:09;47.50;;;24.13;;
20894;SDS011;10607;42.066;24.742;2022-08-19T04:54:34;163.15;;;79.60;;
20894;SDS011;10607;42.066;24.742;2022-08-19T04:56:59;203.05;;;91.47;;
20894;SDS011;10607;42.066;24.742;2022-08-19T04:59:25;79.60;;;39.67;;
20894;SDS011;10607;42.066;24.742;2022-08-19T05:01:50;49.28;;;20.85;;
20894;SDS011;10607;42.066;24.742;2022-08-19T05:04:18;31.50;;;11.65;;
20894;SDS011;10607;42.066;24.742;2022-08-19T05:06:45;22.05;;;9.55;;
20894;SDS011;10607;42.066;24.742;2022-08-19T05:09:12;19.65;;;7.90;;
20894;SDS011;10607;42.066;24.742;2022-08-19T05:11:38;12.65;;;7.70;;
20894;SDS011;10607;42.066;24.742;2022-08-19T05:14:04;9.68;;;6.63;;
20894;SDS011;10607;42.066;24.742;2022-08-19T05:16:31;7.45;;;6.55;;
20894;SDS011;10607;42.066;24.742;2022-08-19T05:18:56;19.80;;;10.85;;
20894;SDS011;10607;42.066;24.742;2022-08-19T05:21:41;20.05;;;10.95;;
20894;SDS011;10607;42.066;24.742;2022-08-19T05:24:26;20.73;;;8.27;;
20894;SDS011;10607;42.066;24.742;2022-08-19T05:26:52;11.48;;;6.72;;
20894;SDS011;10607;42.066;24.742;2022-08-19T05:29:21;13.70;;;7.13;;
20894;SDS011;10607;42.066;24.742;2022-08-19T05:31:48;14.95;;;7.57;;
20894;SDS011;10607;42.066;24.742;2022-08-19T05:34:16;10.30;;;8.65;;
20894;SDS011;10607;42.066;24.742;2022-08-19T05:36:43;10.52;;;8.18;;
20894;SDS011;10607;42.066;24.742;2022-08-19T05:39:11;11.63;;;8.30;;
20894;SDS011;10607;42.066;24.742;2022-08-19T05:41:45;20.05;;;9.10;;
20894;SDS011;10607;42.066;24.742;2022-08-19T05:44:12;12.27;;;8.48;;
20894;SDS011;10607;42.066;24.742;2022-08-19T05:46:39;13.73;;;8.75;;
20894;SDS011;10607;42.066;24.742;2022-08-19T05:49:05;14.50;;;8.55;;
20894;SDS011;10607;42.066;24.742;2022-08-19T05:51:32;17.83;;;8.30;;
20894;SDS011;10607;42.066;24.742;2022-08-19T05:53:59;17.38;;;8.68;;
20894;SDS011;10607;42.066;24.742;2022-08-19T05:56:25;15.57;;;8.02;;
20894;SDS011;10607;42.066;24.742;2022-08-19T05:58:50;13.23;;;6.95;;
20894;SDS011;10607;42.066;24.742;2022-08-19T06:01:18;12.75;;;7.32;;
20894;SDS011;10607;42.066;24.742;2022-08-19T06:03:44;24.02;;;7.57;;
20894;SDS011;10607;42.066;24.742;2022-08-19T06:06:11;12.52;;;6.78;;
20894;SDS011;10607;42.066;24.742;2022-08-19T06:08:37;12.85;;;6.43;;
20894;SDS011;10607;42.066;24.742;2022-08-19T06:13:53;9.82;;;6.70;;
20894;SDS011;10607;42.066;24.742;2022-08-19T06:16:19;9.30;;;7.00;;
20894;SDS011;10607;42.066;24.742;2022-08-19T06:18:51;15.40;;;6.90;;
20894;SDS011;10607;42.066;24.742;2022-08-19T06:21:19;13.75;;;7.05;;
20894;SDS011;10607;42.066;24.742;2022-08-19T06:23:49;16.70;;;6.95;;
20894;SDS011;10607;42.066;24.742;2022-08-19T06:26:16;12.00;;;7.10;;
20894;SDS011;10607;42.066;24.742;2022-08-19T06:28:42;14.48;;;6.70;;
20894;SDS011;10607;42.066;24.742;2022-08-19T06:31:21;18.20;;;7.43;;
20894;SDS011;10607;42.066;24.742;2022-08-19T06:33:49;14.05;;;6.88;;
20894;SDS011;10607;42.066;24.742;2022-08-19T06:36:16;16.50;;;6.97;;
20894;SDS011;10607;42.066;24.742;2022-08-19T06:38:56;10.50;;;7.35;;
20894;SDS011;10607;42.066;24.742;2022-08-19T06:41:23;19.65;;;6.97;;
20894;SDS011;10607;42.066;24.742;2022-08-19T06:43:51;12.13;;;6.82;;
20894;SDS011;10607;42.066;24.742;2022-08-19T06:46:18;11.20;;;6.50;;
20894;SDS011;10607;42.066;24.742;2022-08-19T06:48:44;14.40;;;7.80;;
20894;SDS011;10607;42.066;24.742;2022-08-19T06:51:10;10.25;;;7.32;;
20894;SDS011;10607;42.066;24.742;2022-08-19T06:53:36;21.63;;;7.50;;
20894;SDS011;10607;42.066;24.742;2022-08-19T06:56:01;12.93;;;7.03;;
20894;SDS011;10607;42.066;24.742;2022-08-19T06:58:30;8.25;;;6.35;;
20894;SDS011;10607;42.066;24.742;2022-08-19T07:01:02;18.85;;;7.07;;
20894;SDS011;10607;42.066;24.742;2022-08-19T07:03:29;15.32;;;7.20;;
20894;SDS011;10607;42.066;24.742;2022-08-19T07:05:57;14.73;;;6.65;;
20894;SDS011;10607;42.066;24.742;2022-08-19T07:08:27;15.27;;;7.53;;
20894;SDS011;10607;42.066;24.742;2022-08-19T07:10:52;12.27;;;7.07;;
20894;SDS011;10607;42.066;24.742;2022-08-19T07:13:18;14.85;;;6.93;;
20894;SDS011;10607;42.066;24.742;2022-08-19T07:15:44;20.63;;;7.93;;
20894;SDS011;10607;42.066;24.742;2022-08-19T07:18:11;18.58;;;7.20;;
20894;SDS011;10607;42.066;24.742;2022-08-19T07:20:37;13.15;;;6.68;;
20894;SDS011;10607;42.066;24.742;2022-08-19T07:23:04;15.05;;;7.28;;
20894;SDS011;10607;42.066;24.742;2022-08-19T07:25:29;14.52;;;7.47;;
20894;SDS011;10607;42.066;24.742;2022-08-19T07:27:54;23.02;;;7.60;;
20894;SDS011;10607;42.066;24.742;2022-08-19T07:30:20;12.82;;;6.22;;
20894;SDS011;10607;42.066;24.742;2022-08-19T07:32:47;21.38;;;7.45;;
20894;SDS011;10607;42.066;24.742;2022-08-19T07:35:13;10.48;;;6.78;;
20894;SDS011;10607;42.066;24.742;2022-08-19T07:37:38;19.20;;;7.40;;
20894;SDS011;10607;42.066;24.742;2022-08-19T07:40:09;17.55;;;6.45;;
20894;SDS011;10607;42.066;24.742;2022-08-19T07:42:35;11.27;;;6.40;;
20894;SDS011;10607;42.066;24.742;2022-08-19T07:45:00;14.25;;;6.43;;
20894;SDS011;10607;42.066;24.742;2022-08-19T07:47:26;15.57;;;6.70;;
20894;SDS011;10607;42.066;24.742;2022-08-19T07:49:52;16.15;;;6.47;;
20894;SDS011;10607;42.066;24.742;2022-08-19T07:52:17;15.43;;;6.53;;
20894;SDS011;10607;42.066;24.742;2022-08-19T07:54:43;16.30;;;6.20;;
20894;SDS011;10607;42.066;24.742;2022-08-19T07:57:09;9.52;;;5.68;;
20894;SDS011;10607;42.066;24.742;2022-08-19T07:59:34;12.02;;;5.72;;
20894;SDS011;10607;42.066;24.742;2022-08-19T08:02:01;9.80;;;5.35;;
20894;SDS011;10607;42.066;24.742;2022-08-19T08:04:27;11.57;;;5.28;;
20894;SDS011;10607;42.066;24.742;2022-08-19T08:07:12;14.85;;;5.95;;
20894;SDS011;10607;42.066;24.742;2022-08-19T08:09:56;9.88;;;5.78;;
20894;SDS011;10607;42.066;24.742;2022-08-19T08:12:23;16.35;;;5.85;;
20894;SDS011;10607;42.066;24.742;2022-08-19T08:14:54;12.02;;;6.22;;
20894;SDS011;10607;42.066;24.742;2022-08-19T08:17:21;22.33;;;6.15;;
20894;SDS011;10607;42.066;24.742;2022-08-19T08:19:49;11.02;;;5.88;;
20894;SDS011;10607;42.066;24.742;2022-08-19T08:22:17;10.90;;;5.25;;
20894;SDS011;10607;42.066;24.742;2022-08-19T08:25:06;12.65;;;5.00;;
20894;SDS011;10607;42.066;24.742;2022-08-19T08:27:42;8.52;;;4.70;;
20894;SDS011;10607;42.066;24.742;2022-08-19T08:30:10;7.10;;;4.72;;
20894;SDS011;10607;42.066;24.742;2022-08-19T08:32:42;8.88;;;4.43;;
20894;SDS011;10607;42.066;24.742;2022-08-19T08:35:16;7.07;;;4.50;;
20894;SDS011;10607;42.066;24.742;2022-08-19T08:37:45;7.40;;;5.03;;
20894;SDS011;10607;42.066;24.742;2022-08-19T08:43:06;7.93;;;4.53;;
20894;SDS011;10607;42.066;24.742;2022-08-19T08:45:36;18.23;;;5.05;;
20894;SDS011;10607;42.066;24.742;2022-08-19T08:48:32;22.35;;;5.10;;
20894;SDS011;10607;42.066;24.742;2022-08-19T08:50:59;6.68;;;3.90;;
20894;SDS011;10607;42.066;24.742;2022-08-19T08:53:28;14.45;;;4.68;;
20894;SDS011;10607;42.066;24.742;2022-08-19T08:55:56;8.90;;;4.20;;
20894;SDS011;10607;42.066;24.742;2022-08-19T08:58:27;9.77;;;4.45;;
20894;SDS011;10607;42.066;24.742;2022-08-19T09:01:08;8.30;;;4.43;;
20894;SDS011;10607;42.066;24.742;2022-08-19T09:03:36;6.72;;;4.57;;
20894;SDS011;10607;42.066;24.742;2022-08-19T09:06:07;12.02;;;3.72;;
20894;SDS011;10607;42.066;24.742;2022-08-19T09:08:57;5.18;;;3.97;;
20894;SDS011;10607;42.066;24.742;2022-08-19T09:16:57;8.00;;;3.72;;
20894;SDS011;10607;42.066;24.742;2022-08-19T09:19:24;9.30;;;3.63;;
20894;SDS011;10607;42.066;24.742;2022-08-19T09:21:50;9.27;;;3.90;;
20894;SDS011;10607;42.066;24.742;2022-08-19T09:24:15;8.20;;;3.47;;
20894;SDS011;10607;42.066;24.742;2022-08-19T09:26:41;7.78;;;4.03;;
20894;SDS011;10607;42.066;24.742;2022-08-19T09:29:09;4.95;;;4.20;;
20894;SDS011;10607;42.066;24.742;2022-08-19T09:31:35;6.70;;;3.95;;
20894;SDS011;10607;42.066;24.742;2022-08-19T09:34:01;10.90;;;3.80;;
20894;SDS011;10607;42.066;24.742;2022-08-19T09:36:29;15.23;;;3.58;;
20894;SDS011;10607;42.066;24.742;2022-08-19T09:38:58;5.15;;;4.00;;
20894;SDS011;10607;42.066;24.742;2022-08-19T09:41:25;7.28;;;3.75;;
20894;SDS011;10607;42.066;24.742;2022-08-19T09:43:53;8.25;;;3.67;;
20894;SDS011;10607;42.066;24.742;2022-08-19T09:46:21;10.25;;;4.28;;
20894;SDS011;10607;42.066;24.742;2022-08-19T09:48:49;8.70;;;3.28;;
20894;SDS011;10607;42.066;24.742;2022-08-19T09:51:24;4.85;;;3.42;;
20894;SDS011;10607;42.066;24.742;2022-08-19T09:53:51;19.48;;;4.28;;
20894;SDS011;10607;42.066;24.742;2022-08-19T09:56:19;8.95;;;3.83;;
20894;SDS011;10607;42.066;24.742;2022-08-19T09:58:45;8.48;;;3.63;;
20894;SDS011;10607;42.066;24.742;2022-08-19T10:01:24;5.50;;;3.55;;
20894;SDS011;10607;42.066;24.742;2022-08-19T10:03:52;6.07;;;3.60;;
20894;SDS011;10607;42.066;24.742;2022-08-19T10:06:20;9.35;;;3.38;;
20894;SDS011;10607;42.066;24.742;2022-08-19T10:08:48;13.68;;;3.85;;
20894;SDS011;10607;42.066;24.742;2022-08-19T10:11:16;3.90;;;3.50;;
20894;SDS011;10607;42.066;24.742;2022-08-19T10:13:43;7.50;;;3.92;;
20894;SDS011;10607;42.066;24.742;2022-08-19T10:16:11;4.32;;;3.55;;
20894;SDS011;10607;42.066;24.742;2022-08-19T10:18:43;6.20;;;3.42;;
20894;SDS011;10607;42.066;24.742;2022-08-19T10:21:11;9.73;;;3.88;;
20894;SDS011;10607;42.066;24.742;2022-08-19T10:23:39;4.95;;;3.58;;
20894;SDS011;10607;42.066;24.742;2022-08-19T10:26:12;5.97;;;3.45;;
20894;SDS011;10607;42.066;24.742;2022-08-19T10:28:38;4.13;;;3.15;;
20894;SDS011;10607;42.066;24.742;2022-08-19T10:31:08;8.13;;;3.03;;
20894;SDS011;10607;42.066;24.742;2022-08-19T10:33:37;4.10;;;3.35;;
20894;SDS011;10607;42.066;24.742;2022-08-19T10:36:04;7.80;;;3.20;;
20894;SDS011;10607;42.066;24.742;2022-08-19T10:38:40;9.70;;;3.65;;
20894;SDS011;10607;42.066;24.742;2022-08-19T10:41:07;5.65;;;3.58;;
20894;SDS011;10607;42.066;24.742;2022-08-19T10:43:42;6.38;;;3.30;;
20894;SDS011;10607;42.066;24.742;2022-08-19T10:46:10;10.52;;;3.28;;
20894;SDS011;10607;42.066;24.742;2022-08-19T10:48:37;5.22;;;3.95;;
20894;SDS011;10607;42.066;24.742;2022-08-19T10:51:03;8.75;;;3.47;;
20894;SDS011;10607;42.066;24.742;2022-08-19T10:53:47;7.68;;;3.20;;
20894;SDS011;10607;42.066;24.742;2022-08-19T10:56:13;7.43;;;3.30;;
20894;SDS011;10607;42.066;24.742;2022-08-19T10:58:58;5.40;;;3.00;;
20894;SDS011;10607;42.066;24.742;2022-08-19T11:01:27;11.38;;;3.50;;
20894;SDS011;10607;42.066;24.742;2022-08-19T11:03:54;5.70;;;3.28;;
20894;SDS011;10607;42.066;24.742;2022-08-19T11:06:22;7.65;;;3.25;;
20894;SDS011;10607;42.066;24.742;2022-08-19T11:08:49;10.27;;;3.42;;
20894;SDS011;10607;42.066;24.742;2022-08-19T11:11:15;5.00;;;3.10;;
20894;SDS011;10607;42.066;24.742;2022-08-19T11:13:41;8.13;;;3.80;;
20894;SDS011;10607;42.066;24.742;2022-08-19T11:16:13;9.40;;;3.30;;
20894;SDS011;10607;42.066;24.742;2022-08-19T11:18:42;11.60;;;4.05;;
20894;SDS011;10607;42.066;24.742;2022-08-19T11:21:21;5.63;;;3.45;;
20894;SDS011;10607;42.066;24.742;2022-08-19T11:23:50;9.60;;;3.25;;
20894;SDS011;10607;42.066;24.742;2022-08-19T11:26:18;5.18;;;3.15;;
20894;SDS011;10607;42.066;24.742;2022-08-19T11:28:46;6.43;;;3.60;;
20894;SDS011;10607;42.066;24.742;2022-08-19T11:31:16;6.07;;;3.30;;
20894;SDS011;10607;42.066;24.742;2022-08-19T11:33:43;7.50;;;3.05;;
20894;SDS011;10607;42.066;24.742;2022-08-19T11:36:09;3.58;;;3.10;;
20894;SDS011;10607;42.066;24.742;2022-08-19T11:38:35;8.65;;;3.10;;
20894;SDS011;10607;42.066;24.742;2022-08-19T11:41:05;5.35;;;3.25;;
20894;SDS011;10607;42.066;24.742;2022-08-19T11:43:32;7.80;;;3.22;;
20894;SDS011;10607;42.066;24.742;2022-08-19T11:45:58;6.60;;;3.50;;
20894;SDS011;10607;42.066;24.742;2022-08-19T11:48:24;6.47;;;2.92;;
20894;SDS011;10607;42.066;24.742;2022-08-19T11:50:51;5.07;;;2.83;;
20894;SDS011;10607;42.066;24.742;2022-08-19T11:53:20;3.90;;;2.95;;
20894;SDS011;10607;42.066;24.742;2022-08-19T11:55:46;7.65;;;2.92;;
20894;SDS011;10607;42.066;24.742;2022-08-19T11:58:13;59.05;;;6.32;;
20894;SDS011;10607;42.066;24.742;2022-08-19T12:00:40;11.07;;;4.60;;
20894;SDS011;10607;42.066;24.742;2022-08-19T12:03:06;8.23;;;3.47;;
20894;SDS011;10607;42.066;24.742;2022-08-19T12:05:33;3.40;;;3.08;;
20894;SDS011;10607;42.066;24.742;2022-08-19T12:08:00;7.43;;;3.20;;
20894;SDS011;10607;42.066;24.742;2022-08-19T12:10:26;9.50;;;3.47;;
20894;SDS011;10607;42.066;24.742;2022-08-19T12:12:51;7.05;;;3.70;;
20894;SDS011;10607;42.066;24.742;2022-08-19T12:15:17;7.05;;;3.55;;
20894;SDS011;10607;42.066;24.742;2022-08-19T12:17:42;5.57;;;3.33;;
20894;SDS011;10607;42.066;24.742;2022-08-19T12:20:08;13.85;;;3.25;;
20894;SDS011;10607;42.066;24.742;2022-08-19T12:22:37;4.15;;;3.10;;
20894;SDS011;10607;42.066;24.742;2022-08-19T12:25:04;6.20;;;3.40;;
20894;SDS011;10607;42.066;24.742;2022-08-19T12:27:30;5.88;;;3.40;;
20894;SDS011;10607;42.066;24.742;2022-08-19T12:29:56;7.57;;;3.53;;
20894;SDS011;10607;42.066;24.742;2022-08-19T12:32:22;10.88;;;3.72;;
20894;SDS011;10607;42.066;24.742;2022-08-19T12:34:49;7.75;;;3.50;;
20894;SDS011;10607;42.066;24.742;2022-08-19T12:37:15;9.15;;;3.65;;
20894;SDS011;10607;42.066;24.742;2022-08-19T12:39:41;7.70;;;3.60;;
20894;SDS011;10607;42.066;24.742;2022-08-19T12:42:08;7.55;;;3.67;;
20894;SDS011;10607;42.066;24.742;2022-08-19T12:44:35;7.65;;;3.47;;
20894;SDS011;10607;42.066;24.742;2022-08-19T12:47:03;12.43;;;3.40;;
20894;SDS011;10607;42.066;24.742;2022-08-19T12:49:29;12.80;;;3.95;;
20894;SDS011;10607;42.066;24.742;2022-08-19T12:51:56;6.45;;;3.53;;
20894;SDS011;10607;42.066;24.742;2022-08-19T12:54:23;5.78;;;4.53;;
20894;SDS011;10607;42.066;24.742;2022-08-19T12:56:48;5.43;;;3.92;;
20894;SDS011;10607;42.066;24.742;2022-08-19T12:59:14;10.27;;;3.83;;
20894;SDS011;10607;42.066;24.742;2022-08-19T13:01:42;7.22;;;3.88;;
20894;SDS011;10607;42.066;24.742;2022-08-19T13:04:08;5.18;;;4.00;;
20894;SDS011;10607;42.066;24.742;2022-08-19T13:06:34;7.35;;;3.70;;
20894;SDS011;10607;42.066;24.742;2022-08-19T13:09:00;10.15;;;3.85;;
20894;SDS011;10607;42.066;24.742;2022-08-19T13:11:25;9.02;;;3.90;;
20894;SDS011;10607;42.066;24.742;2022-08-19T13:13:51;8.45;;;3.92;;
20894;SDS011;10607;42.066;24.742;2022-08-19T13:16:20;14.02;;;5.40;;
20894;SDS011;10607;42.066;24.742;2022-08-19T13:18:46;6.95;;;3.78;;
20894;SDS011;10607;42.066;24.742;2022-08-19T13:21:12;10.55;;;3.70;;
20894;SDS011;10607;42.066;24.742;2022-08-19T13:23:38;4.55;;;3.63;;
20894;SDS011;10607;42.066;24.742;2022-08-19T13:26:05;10.15;;;4.68;;
20894;SDS011;10607;42.066;24.742;2022-08-19T13:28:32;23.73;;;4.53;;
20894;SDS011;10607;42.066;24.742;2022-08-19T13:31:18;6.35;;;3.60;;
20894;SDS011;10607;42.066;24.742;2022-08-19T13:34:03;7.47;;;3.75;;
20894;SDS011;10607;42.066;24.742;2022-08-19T13:36:31;9.18;;;3.38;;
20894;SDS011;10607;42.066;24.742;2022-08-19T13:38:57;7.35;;;3.22;;
20894;SDS011;10607;42.066;24.742;2022-08-19T13:41:22;4.32;;;3.38;;
20894;SDS011;10607;42.066;24.742;2022-08-19T13:43:48;8.77;;;3.70;;
20894;SDS011;10607;42.066;24.742;2022-08-19T13:46:14;12.15;;;4.90;;
20894;SDS011;10607;42.066;24.742;2022-08-19T13:48:39;5.70;;;3.95;;
20894;SDS011;10607;42.066;24.742;2022-08-19T13:51:05;7.43;;;3.58;;
20894;SDS011;10607;42.066;24.742;2022-08-19T13:53:34;7.70;;;3.38;;
20894;SDS011;10607;42.066;24.742;2022-08-19T13:56:06;7.35;;;4.07;;
20894;SDS011;10607;42.066;24.742;2022-08-19T13:58:34;9.57;;;4.30;;
20894;SDS011;10607;42.066;24.742;2022-08-19T14:01:00;11.07;;;3.67;;
20894;SDS011;10607;42.066;24.742;2022-08-19T14:03:26;9.50;;;3.90;;
20894;SDS011;10607;42.066;24.742;2022-08-19T14:05:51;6.85;;;3.20;;
20894;SDS011;10607;42.066;24.742;2022-08-19T14:08:17;9.98;;;3.53;;
20894;SDS011;10607;42.066;24.742;2022-08-19T14:10:43;8.70;;;3.88;;
20894;SDS011;10607;42.066;24.742;2022-08-19T14:13:09;14.35;;;4.18;;
20894;SDS011;10607;42.066;24.742;2022-08-19T14:15:35;15.13;;;4.20;;
20894;SDS011;10607;42.066;24.742;2022-08-19T14:18:02;7.50;;;3.42;;
20894;SDS011;10607;42.066;24.742;2022-08-19T14:20:27;5.68;;;3.60;;
20894;SDS011;10607;42.066;24.742;2022-08-19T14:22:54;5.07;;;3.10;;
20894;SDS011;10607;42.066;24.742;2022-08-19T14:25:21;10.77;;;3.65;;
20894;SDS011;10607;42.066;24.742;2022-08-19T14:27:51;6.50;;;3.55;;
20894;SDS011;10607;42.066;24.742;2022-08-19T14:30:20;5.15;;;3.38;;
20894;SDS011;10607;42.066;24.742;2022-08-19T14:32:52;6.32;;;3.70;;
20894;SDS011;10607;42.066;24.742;2022-08-19T14:35:19;6.85;;;3.80;;
20894;SDS011;10607;42.066;24.742;2022-08-19T14:37:46;7.70;;;3.38;;
20894;SDS011;10607;42.066;24.742;2022-08-19T14:40:16;8.10;;;3.50;;
20894;SDS011;10607;42.066;24.742;2022-08-19T14:42:48;10.15;;;3.78;;
20894;SDS011;10607;42.066;24.742;2022-08-19T14:45:13;5.75;;;3.30;;
20894;SDS011;10607;42.066;24.742;2022-08-19T14:47:39;6.43;;;3.55;;